CheckWX is a tool to help pilots better visualize weather data.  It is not intended as a substitute for an official pre-flight weather briefing.

16:55:26 UTC

SAWH TAF
Malvinas Argentinas Airport
Ushuahia, Argentina
TAF SAWH 181100Z 1812/1912 VRB07KT 9999 FEW030 BKN070 TX07/1819Z TN02/1812Z TEMPO 1813/1821 34010KT BECMG 1902/1904 25020G30KT BKN030

Jun-18@
12:00 UTC

Jun-18 @ 12:00 UTC

Jun-19@
02:00 UTC

Jun-19 @ 02:00 UTC

TAF SAWH 181100Z 1812/1912 VRB07KT 9999 FEW030 BKN070 TX07/1819Z TN02/1812Z
Wind
  • Variable at 7 KTS
Cloud Levels
  • Few at 3,000' AGL
  • Broken at 7,000' AGL

Jun-18@
13:00 UTC

Jun-18 @ 13:00 UTC

Jun-18@
21:00 UTC

Jun-18 @ 21:00 UTC

TEMPO 1813/1821 34010KT

Temporary

Temporary Changes expected for less than half the time period

Wind
  • 340° at 10 KTS

Jun-19@
02:00 UTC

Jun-19 @ 02:00 UTC

Jun-19@
12:00 UTC

Jun-19 @ 12:00 UTC

BECMG 1902/1904 25020G30KT BKN030

Becoming

Becoming Conditions expected by Wed, Jun 19, 2019 @ 04:00 UTC

Wind
  • 250° at 20 KTS
  • {Gusting to 30 KTS
Cloud Levels
  • Broken at 3,000' AGL